Terminal Aerodrome Forecast
Issued by NWS

Current Version | Previous Version | Text Only | Print | Product List | Glossary On
Versions: 1 2 3 4 5 6 7 8 9 10 11 12 13 14 15 16 17 18 19 20 21 22 23 24 25 26 27 28 29 30 31 32 33 34
000
FTUS45 KSLC 221906 AAA
TAFBCE
TAF AMD
KBCE 221906Z 2219/2318 29012G20KT P6SM VCSH FEW040 BKN050
      TEMPO 2219/2220 6SM -RA SCT015 BKN020
     FM222000 30022G34KT 6SM -RA SCT009 BKN015
     FM230300 32020KT P6SM VCSH SCT030 BKN050
     FM231200 33015KT P6SM SCT040 BKN070=

USA.gov is the U.S. government's official web portal to all federal, state and local government web resources and services.